createdAt,value
2019-04-22T00:01:43.603Z,10.83
2019-04-22T00:04:17.796Z,10.80
2019-04-22T00:07:03.304Z,10.20
2019-04-22T00:09:38.841Z,10.50
2019-04-22T00:12:16.470Z,10.53
2019-04-22T00:14:34.642Z,11.37
2019-04-22T00:17:20.348Z,10.80
2019-04-22T00:19:43.852Z,10.40
2019-04-22T00:22:18.541Z,11.03
2019-04-22T00:24:39.043Z,11.37
2019-04-22T00:27:18.344Z,10.80
2019-04-22T00:32:33.743Z,11.30
2019-04-22T00:35:01.941Z,11.40
2019-04-22T00:37:34.686Z,11.10
2019-04-22T00:40:12.941Z,10.13
2019-04-22T00:42:36.313Z,11.17
2019-04-22T00:45:07.900Z,12.03
2019-04-22T00:47:38.044Z,10.63
2019-04-22T00:52:35.806Z,11.73
2019-04-22T01:00:06.662Z,12.10
2019-04-22T01:02:46.078Z,12.70
2019-04-22T01:05:07.744Z,12.70
2019-04-22T01:07:58.996Z,12.80
2019-04-22T01:10:33.862Z,13.27
2019-04-22T01:12:59.260Z,13.27
2019-04-22T01:15:35.478Z,13.23
2019-04-22T01:18:21.091Z,13.50
2019-04-22T01:23:19.752Z,13.60
2019-04-22T01:25:46.413Z,13.30
2019-04-22T01:28:12.614Z,14.23
2019-04-22T01:30:38.418Z,14.43
2019-04-22T01:33:08.336Z,13.20
2019-04-22T01:35:38.604Z,13.90
2019-04-22T01:38:13.391Z,14.07
2019-04-22T01:40:59.781Z,15.13
2019-04-22T01:43:30.004Z,14.87
2019-04-22T01:45:56.185Z,14.37
2019-04-22T01:48:26.400Z,14.63
2019-04-22T01:50:54.956Z,14.47
2019-04-22T01:53:27.536Z,15.13
2019-04-22T01:55:59.053Z,14.30
2019-04-22T01:58:23.669Z,15.83
2019-04-22T02:01:14.706Z,15.77
2019-04-22T02:03:33.316Z,15.53
2019-04-22T02:06:02.445Z,15.47
2019-04-22T02:08:37.881Z,15.77
2019-04-22T02:11:01.012Z,16.17
2019-04-22T02:13:38.188Z,15.80
2019-04-22T02:16:21.224Z,16.43
2019-04-22T02:18:39.404Z,16.57
2019-04-22T02:21:01.523Z,16.07
2019-04-22T02:34:09.636Z,16.57
2019-04-22T02:41:28.875Z,16.30
2019-04-22T02:43:51.861Z,16.67
2019-04-22T02:56:27.475Z,17.90
2019-04-22T02:59:00.101Z,18.40
2019-04-22T03:01:24.816Z,18.87
2019-04-22T03:12:00.885Z,19.37
2019-04-22T03:16:40.307Z,20.20
2019-04-22T03:19:13.881Z,20.23
2019-04-22T03:29:04.760Z,20.37
2019-04-22T03:37:21.351Z,20.90
2019-04-22T03:39:46.246Z,20.93
2019-04-22T03:42:06.416Z,21.00
2019-04-22T03:49:32.245Z,21.23
2019-04-22T03:52:10.907Z,20.67
2019-04-22T03:57:24.986Z,21.83
2019-04-22T04:02:02.066Z,21.63
2019-04-22T04:07:38.362Z,22.70
2019-04-22T04:12:23.568Z,21.97
2019-04-22T04:15:16.178Z,22.13
2019-04-22T04:25:08.387Z,22.97
2019-04-22T04:27:50.833Z,23.43
2019-04-22T04:30:05.182Z,23.57
2019-04-22T04:32:34.325Z,23.37
2019-04-22T04:37:40.710Z,23.60
2019-04-22T04:40:07.466Z,24.13
2019-04-22T04:50:20.607Z,25.17
2019-04-22T04:58:04.370Z,23.73
2019-04-22T05:02:46.530Z,24.57
2019-04-22T05:05:16.796Z,24.57
2019-04-22T05:07:56.430Z,25.60
2019-04-22T05:15:57.640Z,25.73
2019-04-22T05:17:52.445Z,26.73
2019-04-22T05:20:33.719Z,26.10
2019-04-22T05:22:43.071Z,25.50
2019-04-22T05:25:12.998Z,25.70
2019-04-22T05:27:40.047Z,27.00
2019-04-22T05:37:45.715Z,26.77
2019-04-22T05:40:18.666Z,27.30
2019-04-22T05:42:34.511Z,28.23
2019-04-22T05:47:38.980Z,27.30
2019-04-22T05:50:10.896Z,27.90
2019-04-22T05:52:46.880Z,27.97
2019-04-22T05:57:45.727Z,28.23
2019-04-22T06:00:25.677Z,28.60
2019-04-22T06:02:53.624Z,29.30
2019-04-22T06:05:22.349Z,28.77
2019-04-22T06:07:45.641Z,29.83
2019-04-22T06:12:43.228Z,30.33
2019-04-22T06:15:18.324Z,29.40
2019-04-22T06:17:55.126Z,29.13
2019-04-22T06:20:25.604Z,30.40
2019-04-22T06:25:27.784Z,30.07
2019-04-22T06:27:54.197Z,29.33
2019-04-22T06:30:20.657Z,29.77
2019-04-22T06:32:59.204Z,29.23
2019-04-22T06:35:31.140Z,28.63
2019-04-22T06:38:22.790Z,30.33
2019-04-22T06:40:27.515Z,29.40
2019-04-22T06:42:58.580Z,29.83
2019-04-22T06:45:26.374Z,29.80
2019-04-22T06:48:13.113Z,30.40
2019-04-22T06:50:33.925Z,29.50
2019-04-22T06:53:00.069Z,30.07
2019-04-22T06:55:29.824Z,30.00
2019-04-22T06:58:00.364Z,31.17
2019-04-22T07:00:29.377Z,30.00
2019-04-22T07:03:18.987Z,30.93
2019-04-22T07:05:28.045Z,30.07
2019-04-22T07:08:04.142Z,30.77
2019-04-22T07:12:58.422Z,30.73
2019-04-22T07:15:42.411Z,30.57
2019-04-22T07:18:04.288Z,30.00
2019-04-22T07:20:34.915Z,30.67
2019-04-22T07:23:03.405Z,30.20
2019-04-22T07:25:32.753Z,30.80
2019-04-22T07:28:01.469Z,29.57
2019-04-22T07:35:36.217Z,29.23
2019-04-22T07:38:04.682Z,30.37
2019-04-22T07:40:34.099Z,28.33
2019-04-22T07:43:09.063Z,28.67
2019-04-22T07:45:39.136Z,28.27
2019-04-22T07:48:09.630Z,28.80
2019-04-22T07:50:49.413Z,28.10
2019-04-22T07:53:05.400Z,28.40
2019-04-22T07:55:32.718Z,27.43
2019-04-22T07:58:05.440Z,27.13
2019-04-22T08:00:34.219Z,27.53
2019-04-22T08:05:45.978Z,28.87
2019-04-22T08:08:13.119Z,27.87
2019-04-22T08:13:05.659Z,27.57
2019-04-22T08:15:41.041Z,27.10
2019-04-22T08:18:14.101Z,27.90
2019-04-22T08:20:45.537Z,27.70
2019-04-22T08:23:08.772Z,27.77
2019-04-22T08:25:38.831Z,27.33
2019-04-22T08:28:11.819Z,27.10
2019-04-22T08:30:44.005Z,27.17
2019-04-22T08:33:15.974Z,27.50
2019-04-22T08:38:11.892Z,26.73
2019-04-22T08:40:48.746Z,26.87
2019-04-22T08:43:22.229Z,27.40
2019-04-22T08:48:15.097Z,26.57
2019-04-22T08:50:44.604Z,25.40
2019-04-22T08:53:28.631Z,26.07
2019-04-22T08:55:57.955Z,26.23
2019-04-22T09:00:57.175Z,25.80
2019-04-22T09:03:16.206Z,23.50
2019-04-22T09:08:19.076Z,25.37
2019-04-22T09:10:55.275Z,24.37
2019-04-22T09:13:31.858Z,22.77
2019-04-22T09:15:49.110Z,23.30
2019-04-22T09:18:21.653Z,22.17
2019-04-22T09:21:04.193Z,21.87
2019-04-22T09:23:30.226Z,22.07
2019-04-22T09:25:53.180Z,20.80
2019-04-22T09:28:26.030Z,21.50
2019-04-22T09:31:02.084Z,21.80
2019-04-22T09:33:28.993Z,21.60
2019-04-22T09:36:00.444Z,20.20
2019-04-22T09:41:00.716Z,22.73
2019-04-22T09:43:33.604Z,21.57
2019-04-22T09:45:57.415Z,22.17
2019-04-22T09:50:58.918Z,22.17
2019-04-22T09:53:32.192Z,21.40
2019-04-22T09:56:27.368Z,20.57
2019-04-22T09:58:52.367Z,20.27
2019-04-22T10:01:30.721Z,20.20
2019-04-22T10:03:56.363Z,20.37
2019-04-22T10:06:30.269Z,20.70
2019-04-22T10:09:12.701Z,19.37
2019-04-22T10:16:35.422Z,18.10
2019-04-22T10:19:00.941Z,16.90
2019-04-22T10:21:35.556Z,18.53
2019-04-22T10:23:50.612Z,19.30
2019-04-22T10:26:31.727Z,17.93
2019-04-22T10:29:01.721Z,17.77
2019-04-22T10:31:32.887Z,17.80
2019-04-22T10:33:50.035Z,18.73
2019-04-22T10:36:03.653Z,18.03
2019-04-22T10:38:32.586Z,18.73
2019-04-22T10:41:02.639Z,17.03
2019-04-22T10:43:32.820Z,17.23
2019-04-22T10:46:02.086Z,17.97
2019-04-22T10:48:32.320Z,18.27
2019-04-22T10:51:01.233Z,18.23
2019-04-22T10:53:31.140Z,16.40
2019-04-22T10:56:00.983Z,17.17
2019-04-22T10:58:30.796Z,15.27
2019-04-22T11:01:00.174Z,14.97
2019-04-22T11:03:29.215Z,16.07
2019-04-22T11:05:59.302Z,15.77
2019-04-22T11:08:37.996Z,15.57
2019-04-22T11:11:30.173Z,14.70
2019-04-22T11:13:49.523Z,14.97
2019-04-22T11:16:19.346Z,15.77
2019-04-22T11:18:49.499Z,13.97
2019-04-22T11:21:19.804Z,15.13
2019-04-22T11:23:48.649Z,15.80
2019-04-22T11:26:17.712Z,11.73
2019-04-22T11:28:47.617Z,12.73
2019-04-22T11:31:16.670Z,13.17
2019-04-22T11:33:45.276Z,12.20
2019-04-22T11:36:13.917Z,13.23
2019-04-22T11:38:48.690Z,13.07
2019-04-22T11:41:12.811Z,13.13
2019-04-22T11:43:42.975Z,11.50
2019-04-22T11:46:13.343Z,12.50
2019-04-22T11:48:42.436Z,11.17
2019-04-22T11:51:11.648Z,10.83
2019-04-22T11:53:40.916Z,13.50
2019-04-22T11:56:10.990Z,14.23
2019-04-22T11:58:39.866Z,13.63
2019-04-22T12:01:08.697Z,14.97
2019-04-22T12:03:49.802Z,15.00
2019-04-22T12:06:19.760Z,14.10
2019-04-22T12:08:49.916Z,13.50
2019-04-22T12:11:20.555Z,13.37
2019-04-22T12:14:09.756Z,11.60
2019-04-22T12:16:39.358Z,10.60
2019-04-22T12:19:09.212Z,10.00
2019-04-22T12:21:39.354Z,10.10
2019-04-22T12:24:09.112Z,10.80
2019-04-22T12:26:38.139Z,8.63
2019-04-22T12:29:07.129Z,9.07
2019-04-22T12:31:35.838Z,9.53
2019-04-22T12:34:05.980Z,9.43
2019-04-22T12:36:36.130Z,8.87
2019-04-22T12:39:07.598Z,8.93
2019-04-22T12:41:36.269Z,8.67
2019-04-22T12:44:05.281Z,8.47
2019-04-22T12:46:34.240Z,9.00
2019-04-22T12:49:04.432Z,9.10
2019-04-22T12:51:33.339Z,7.57
2019-04-22T12:54:03.399Z,8.03
2019-04-22T12:56:33.387Z,7.40
2019-04-22T12:59:03.682Z,6.53
2019-04-22T13:01:33.121Z,6.00
2019-04-22T13:04:07.359Z,5.43
2019-04-22T13:06:32.372Z,6.00
2019-04-22T13:09:02.181Z,5.57
2019-04-22T13:11:34.843Z,6.00
2019-04-22T13:14:01.313Z,5.37
2019-04-22T13:16:31.345Z,6.07
2019-04-22T13:19:05.158Z,5.40
2019-04-22T13:21:31.097Z,6.23
2019-04-22T13:23:59.920Z,6.00
2019-04-22T13:26:29.750Z,6.00
2019-04-22T13:28:59.069Z,5.60
2019-04-22T13:31:30.883Z,5.73
2019-04-22T13:34:03.559Z,5.10
2019-04-22T13:36:31.710Z,5.53
2019-04-22T13:39:03.032Z,5.50
2019-04-22T13:41:40.001Z,5.43
2019-04-22T13:44:02.084Z,5.53
2019-04-22T13:46:32.144Z,5.00
2019-04-22T13:49:34.019Z,5.87
2019-04-22T13:56:51.871Z,5.77
2019-04-22T13:59:10.226Z,5.13
2019-04-22T14:01:52.651Z,5.60
2019-04-22T14:04:28.633Z,5.13
2019-04-22T14:06:58.647Z,5.47
2019-04-22T14:09:28.362Z,5.60
2019-04-22T14:12:02.986Z,6.23
2019-04-22T14:14:28.129Z,6.50
2019-04-22T14:16:56.923Z,6.03
2019-04-22T14:19:26.028Z,6.70
2019-04-22T14:21:55.646Z,5.63
2019-04-22T14:24:25.790Z,6.40
2019-04-22T14:27:08.773Z,6.37
2019-04-22T14:29:26.017Z,7.27
2019-04-22T14:32:06.709Z,7.37
2019-04-22T14:34:26.588Z,7.57
2019-04-22T14:36:55.468Z,8.20
2019-04-22T14:39:24.143Z,7.90
2019-04-22T14:42:12.345Z,8.67
2019-04-22T14:45:15.487Z,8.27
2019-04-22T14:49:47.463Z,8.97
2019-04-22T14:52:15.039Z,8.70
2019-04-22T14:54:37.719Z,9.57
2019-04-22T14:56:56.255Z,9.00
2019-04-22T14:59:25.143Z,9.33
2019-04-22T15:01:54.126Z,9.00
2019-04-22T15:04:23.458Z,9.97
2019-04-22T15:06:52.753Z,9.30
2019-04-22T15:09:21.820Z,8.70
2019-04-22T15:12:04.952Z,9.30
2019-04-22T15:14:21.506Z,8.77
2019-04-22T15:17:22.899Z,9.00
2019-04-22T15:20:16.902Z,8.90
2019-04-22T15:22:46.473Z,8.07
2019-04-22T15:25:16.616Z,7.67
2019-04-22T15:27:45.932Z,23.23
2019-04-22T15:30:15.164Z,8.97
2019-04-22T15:32:45.230Z,8.20
2019-04-22T15:35:15.536Z,9.30
2019-04-22T15:37:45.580Z,9.70
2019-04-22T15:40:14.360Z,7.63
2019-04-22T15:42:43.763Z,7.97
2019-04-22T15:45:14.952Z,6.70
2019-04-22T15:47:44.110Z,7.00
2019-04-22T15:50:14.101Z,6.57
2019-04-22T15:52:49.451Z,6.40
2019-04-22T15:55:14.419Z,6.77
2019-04-22T15:57:43.977Z,6.27
2019-04-22T16:00:25.120Z,6.77
2019-04-22T16:02:43.739Z,6.60
2019-04-22T16:05:13.010Z,6.43
2019-04-22T16:07:42.248Z,6.03
2019-04-22T16:10:12.247Z,6.03
2019-04-22T16:12:52.364Z,6.30
2019-04-22T16:15:13.191Z,5.40
2019-04-22T16:17:42.492Z,6.10
2019-04-22T16:20:11.284Z,5.77
2019-04-22T16:22:59.291Z,5.63
2019-04-22T16:25:47.185Z,5.90
2019-04-22T16:28:17.313Z,5.80
2019-04-22T16:30:46.153Z,5.13
2019-04-22T16:33:15.158Z,5.10
2019-04-22T16:35:44.956Z,5.73
2019-04-22T16:38:14.929Z,5.60
2019-04-22T16:40:45.000Z,5.43
2019-04-22T16:43:16.585Z,5.73
2019-04-22T16:45:45.562Z,4.80
2019-04-22T16:48:15.686Z,5.17
2019-04-22T16:50:46.646Z,4.77
2019-04-22T16:53:15.059Z,5.53
2019-04-22T16:55:44.680Z,4.90
2019-04-22T16:58:14.747Z,4.70
2019-04-22T17:00:44.876Z,5.03
2019-04-22T17:03:36.579Z,4.60
2019-04-22T17:06:23.430Z,5.13
2019-04-22T17:08:52.896Z,5.03
2019-04-22T17:11:22.165Z,4.97
2019-04-22T17:13:50.820Z,5.00
2019-04-22T17:16:20.185Z,5.17
2019-04-22T17:18:50.063Z,5.30
2019-04-22T17:21:19.597Z,5.27
2019-04-22T17:23:49.694Z,4.17
2019-04-22T17:26:18.828Z,4.13
2019-04-22T17:28:49.234Z,4.37
2019-04-22T17:31:18.631Z,4.47
2019-04-22T17:33:48.731Z,4.93
2019-04-22T17:36:18.339Z,4.53
2019-04-22T17:38:55.065Z,4.63
2019-04-22T17:41:28.284Z,5.00
2019-04-22T17:44:12.454Z,4.70
2019-04-22T17:46:48.229Z,4.43
2019-04-22T17:49:31.561Z,4.07
2019-04-22T17:52:18.960Z,4.03
2019-04-22T17:54:48.181Z,4.33
2019-04-22T17:57:17.499Z,4.70
2019-04-22T17:59:46.646Z,4.47
2019-04-22T18:02:21.284Z,4.17
2019-04-22T18:04:33.701Z,4.37
2019-04-22T18:07:23.427Z,4.33
2019-04-22T18:12:25.754Z,5.27
2019-04-22T18:14:54.792Z,3.80
2019-04-22T18:17:23.761Z,4.53
2019-04-22T18:19:49.211Z,4.00
2019-04-22T18:22:16.407Z,4.67
2019-04-22T18:24:46.312Z,3.90
2019-04-22T18:27:34.271Z,3.60
2019-04-22T18:29:48.454Z,3.67
2019-04-22T18:32:16.531Z,3.67
2019-04-22T18:34:44.319Z,3.97
2019-04-22T18:37:18.431Z,3.70
2019-04-22T18:39:58.395Z,4.10
2019-04-22T18:42:21.761Z,3.63
2019-04-22T18:45:06.485Z,3.17
2019-04-22T18:47:18.786Z,3.63
2019-04-22T18:49:49.361Z,3.57
2019-04-22T18:52:59.234Z,3.70
2019-04-22T18:55:29.837Z,3.20
2019-04-22T18:58:04.179Z,3.60
2019-04-22T19:00:25.416Z,3.70
2019-04-22T19:03:01.930Z,3.77
2019-04-22T19:05:42.689Z,3.57
2019-04-22T19:11:08.313Z,3.43
2019-04-22T19:16:19.303Z,3.03
2019-04-22T19:18:29.952Z,3.40
2019-04-22T19:20:57.717Z,3.03
2019-04-22T19:23:26.009Z,3.40
2019-04-22T19:25:50.009Z,3.43
2019-04-22T19:28:29.090Z,3.20
2019-04-22T19:31:16.917Z,3.23
2019-04-22T19:33:40.331Z,2.70
2019-04-22T19:36:36.379Z,2.90
2019-04-22T19:38:59.194Z,3.40
2019-04-22T19:41:36.786Z,2.60
2019-04-22T19:44:05.577Z,3.07
2019-04-22T19:46:28.591Z,2.50
2019-04-22T19:49:10.278Z,2.53
2019-04-22T19:51:47.215Z,2.60
2019-04-22T19:54:00.776Z,2.47
2019-04-22T19:56:29.585Z,3.10
2019-04-22T19:59:03.630Z,2.70
2019-04-22T20:02:04.813Z,2.70
2019-04-22T20:04:47.979Z,2.50
2019-04-22T20:07:12.757Z,2.70
2019-04-22T20:09:49.317Z,2.73
2019-04-22T20:12:18.825Z,2.70
2019-04-22T20:14:48.021Z,2.50
2019-04-22T20:17:18.685Z,2.80
2019-04-22T20:19:51.207Z,2.30
2019-04-22T20:22:32.799Z,2.33
2019-04-22T20:24:55.378Z,2.40
2019-04-22T20:27:36.390Z,2.47
2019-04-22T20:30:04.677Z,2.53
2019-04-22T20:32:40.295Z,2.67
2019-04-22T20:35:07.453Z,2.57
2019-04-22T20:37:49.737Z,2.47
2019-04-22T20:40:10.575Z,2.70
2019-04-22T20:45:11.827Z,2.40
2019-04-22T20:47:34.540Z,1.93
2019-04-22T20:50:14.334Z,2.60
2019-04-22T20:52:52.821Z,2.57
2019-04-22T20:55:12.508Z,2.40
2019-04-22T20:57:49.763Z,2.40
2019-04-22T21:00:06.105Z,2.17
2019-04-22T21:02:32.417Z,2.40
2019-04-22T21:05:01.925Z,2.27
2019-04-22T21:07:37.073Z,2.30
2019-04-22T21:10:09.233Z,2.43
2019-04-22T21:12:36.359Z,2.37
2019-04-22T21:15:23.895Z,2.37
2019-04-22T21:17:44.778Z,2.10
2019-04-22T21:20:17.277Z,2.20
2019-04-22T21:22:54.965Z,2.43
2019-04-22T21:25:08.900Z,2.13
2019-04-22T21:27:50.467Z,2.03
2019-04-22T21:30:37.759Z,2.17
2019-04-22T21:33:03.986Z,2.40
2019-04-22T21:35:57.968Z,2.00
2019-04-22T21:38:11.289Z,2.10
2019-04-22T21:40:39.774Z,2.37
2019-04-22T21:43:12.642Z,2.00
2019-04-22T21:45:35.089Z,2.00
2019-04-22T21:48:20.650Z,2.20
2019-04-22T21:50:59.560Z,2.23
2019-04-22T21:53:14.564Z,2.63
2019-04-22T21:55:43.492Z,1.97
2019-04-22T21:58:18.048Z,2.17
2019-04-22T22:01:14.504Z,2.10
2019-04-22T22:03:38.895Z,2.10
2019-04-22T22:06:04.452Z,2.50
2019-04-22T22:08:41.213Z,2.27
2019-04-22T22:11:09.545Z,2.20
2019-04-22T22:13:39.225Z,2.27
2019-04-22T22:16:23.343Z,2.20
2019-04-22T22:19:02.257Z,2.20
2019-04-22T22:21:41.512Z,2.00
2019-04-22T22:24:05.397Z,2.00
2019-04-22T22:26:35.127Z,2.23
2019-04-22T22:29:05.059Z,1.87
2019-04-22T22:31:36.648Z,1.90
2019-04-22T22:34:04.132Z,1.90
2019-04-22T22:36:23.708Z,2.00
2019-04-22T22:38:58.476Z,1.70
2019-04-22T22:41:12.308Z,2.03
2019-04-22T22:43:47.500Z,1.80
2019-04-22T22:46:26.957Z,2.10
2019-04-22T22:49:05.086Z,2.43
2019-04-22T22:51:40.346Z,2.40
2019-04-22T22:54:09.754Z,2.03
2019-04-22T22:56:42.340Z,2.27
2019-04-22T22:59:03.485Z,2.80
2019-04-22T23:01:39.770Z,2.30
2019-04-22T23:04:12.783Z,2.20
2019-04-22T23:06:39.059Z,1.87
2019-04-22T23:09:09.982Z,2.07
2019-04-22T23:11:52.244Z,2.37
2019-04-22T23:14:06.950Z,2.30
2019-04-22T23:16:28.160Z,1.50
2019-04-22T23:19:04.465Z,2.00
2019-04-22T23:21:39.705Z,2.00
2019-04-22T23:24:23.580Z,2.17
2019-04-22T23:27:00.254Z,2.10
2019-04-22T23:29:43.599Z,2.40
2019-04-22T23:32:18.206Z,1.90
2019-04-22T23:34:55.964Z,1.73
2019-04-22T23:37:29.329Z,1.73
2019-04-22T23:40:09.968Z,1.80
2019-04-22T23:42:33.795Z,1.90
2019-04-22T23:45:12.578Z,2.07
2019-04-22T23:47:30.987Z,1.97
2019-04-22T23:50:09.137Z,1.70
2019-04-22T23:52:45.377Z,2.30
2019-04-22T23:55:18.692Z,1.73
2019-04-22T23:57:46.930Z,1.57
